Time;durP1;ratioP1;P1;durP2;ratioP2;P2;SDS_P1;SDS_P2;PMS_P1;PMS_P2;Temp;Humidity;BMP_temperature;BMP_pressure;BME280_temperature;BME280_humidity;BME280_pressure;Samples;Min_cycle;Max_cycle;Signal;HPM_P1;HPM_P2
2022/03/30 00:00:17;;;;;;;47.70;19.63;;;9.00;99.90;;;;;;5008392;28;20029;-64
2022/03/30 00:02:43;;;;;;;48.70;20.13;;;9.00;99.90;;;;;;5014205;28;20030;-64
2022/03/30 00:05:09;;;;;;;47.50;19.55;;;9.00;99.90;;;;;;5009273;28;20050;-62
2022/03/30 00:07:35;;;;;;;44.53;18.83;;;9.00;99.90;;;;;;5014496;28;20029;-64
2022/03/30 00:10:04;;;;;;;40.85;19.17;;;9.00;99.90;;;;;;5014321;28;20034;-63
2022/03/30 00:12:30;;;;;;;45.72;19.80;;;9.00;99.90;;;;;;5013798;28;20372;-64
2022/03/30 00:14:56;;;;;;;44.78;19.55;;;9.00;99.90;;;;;;5011105;28;20144;-64
2022/03/30 00:17:22;;;;;;;46.85;19.83;;;9.00;99.90;;;;;;5008472;28;20044;-64
2022/03/30 00:19:48;;;;;;;45.72;21.08;;;9.00;99.90;;;;;;5013304;28;20033;-64
2022/03/30 00:22:14;;;;;;;46.22;20.08;;;9.00;99.90;;;;;;5012019;28;20288;-64
2022/03/30 00:24:43;;;;;;;49.13;19.60;;;9.00;99.90;;;;;;5011191;28;20025;-63
2022/03/30 00:27:09;;;;;;;47.47;19.02;;;8.90;99.90;;;;;;5007206;28;20125;-63
2022/03/30 00:29:35;;;;;;;43.42;18.88;;;8.80;99.90;;;;;;5008883;28;20449;-63
2022/03/30 00:32:01;;;;;;;46.72;20.17;;;8.80;99.90;;;;;;5013165;28;20093;-63
2022/03/30 00:34:27;;;;;;;50.22;21.00;;;8.70;99.90;;;;;;5008001;28;20758;-64
2022/03/30 00:36:52;;;;;;;44.88;19.83;;;8.70;99.90;;;;;;5009868;28;20041;-64
2022/03/30 00:39:18;;;;;;;52.60;20.60;;;8.70;99.90;;;;;;5011228;28;20038;-63
2022/03/30 00:41:44;;;;;;;50.72;20.27;;;8.60;99.90;;;;;;5006500;28;20022;-63
2022/03/30 00:44:12;;;;;;;41.50;18.83;;;8.60;99.90;;;;;;5011271;28;20046;-64
2022/03/30 00:46:38;;;;;;;46.10;19.45;;;8.60;99.90;;;;;;5008282;28;20034;-64
2022/03/30 00:49:05;;;;;;;46.22;20.42;;;8.60;99.90;;;;;;5008259;28;20091;-63
2022/03/30 00:51:31;;;;;;;50.28;20.10;;;8.70;99.90;;;;;;5009680;28;20042;-64
2022/03/30 00:53:58;;;;;;;48.50;20.30;;;8.70;99.90;;;;;;5008014;28;20121;-64
2022/03/30 00:56:25;;;;;;;50.25;20.95;;;8.70;99.90;;;;;;5012782;28;20434;-64
2022/03/30 00:58:51;;;;;;;45.08;19.60;;;8.70;99.90;;;;;;5008414;28;20451;-63
2022/03/30 01:01:17;;;;;;;47.28;19.17;;;8.80;99.90;;;;;;5017690;28;20022;-64
2022/03/30 01:03:43;;;;;;;47.78;19.38;;;8.80;99.90;;;;;;5015497;28;20062;-64
2022/03/30 01:06:08;;;;;;;47.95;21.35;;;8.70;99.90;;;;;;5005467;28;20111;-63
2022/03/30 01:08:35;;;;;;;47.90;20.60;;;8.70;99.90;;;;;;5019659;28;20438;-64
2022/03/30 01:11:01;;;;;;;47.95;19.08;;;8.80;99.90;;;;;;5011495;28;20030;-63
2022/03/30 01:13:26;;;;;;;47.53;19.42;;;8.70;99.90;;;;;;5017307;28;20372;-63
2022/03/30 01:15:52;;;;;;;49.92;20.20;;;8.60;99.90;;;;;;5018317;28;20519;-64
2022/03/30 01:18:19;;;;;;;46.75;20.25;;;8.60;99.90;;;;;;5012487;28;20056;-63
2022/03/30 01:20:49;;;;;;;48.05;19.42;;;8.50;99.90;;;;;;5013011;28;20034;-63
2022/03/30 01:23:15;;;;;;;45.72;19.15;;;8.50;99.90;;;;;;5016740;28;20087;-64
2022/03/30 01:25:41;;;;;;;49.35;18.90;;;8.50;99.90;;;;;;5015980;28;20042;-63
2022/03/30 01:28:07;;;;;;;43.70;18.40;;;8.50;99.90;;;;;;5009635;28;20469;-63
2022/03/30 01:33:18;;;;;;;43.88;19.55;;;8.70;99.90;;;;;;5010827;28;20175;-62
2022/03/30 01:35:44;;;;;;;43.75;18.77;;;8.70;99.90;;;;;;5015468;28;20022;-63
2022/03/30 01:38:10;;;;;;;48.05;19.05;;;8.70;99.90;;;;;;5019346;28;20018;-64
2022/03/30 01:40:36;;;;;;;44.53;18.75;;;8.70;99.90;;;;;;5011726;28;20403;-63
2022/03/30 01:43:02;;;;;;;46.78;20.17;;;8.70;99.90;;;;;;5014015;28;20053;-64
2022/03/30 01:45:28;;;;;;;50.63;20.10;;;8.70;99.90;;;;;;5013247;28;20022;-63
2022/03/30 01:47:57;;;;;;;47.50;18.77;;;8.60;99.90;;;;;;5012878;28;20669;-64
2022/03/30 01:50:25;;;;;;;47.85;19.27;;;8.60;99.90;;;;;;5012805;28;20042;-64
2022/03/30 01:52:51;;;;;;;54.17;20.08;;;8.60;99.90;;;;;;5021958;28;20055;-65
2022/03/30 01:55:18;;;;;;;45.40;19.20;;;8.50;99.90;;;;;;5011461;28;20022;-64
2022/03/30 01:57:44;;;;;;;45.25;18.45;;;8.50;99.90;;;;;;5012615;28;20108;-64
2022/03/30 02:00:11;;;;;;;41.13;18.45;;;8.60;99.90;;;;;;5010522;28;20272;-64
2022/03/30 02:02:38;;;;;;;44.92;18.75;;;8.60;99.90;;;;;;5010872;28;20034;-64
2022/03/30 02:05:05;;;;;;;45.85;20.23;;;8.70;99.90;;;;;;5012985;28;20054;-63
2022/03/30 02:07:31;;;;;;;43.35;19.10;;;8.60;99.90;;;;;;5015159;28;20167;-63
2022/03/30 02:09:56;;;;;;;40.05;18.15;;;8.60;99.90;;;;;;5016924;28;20124;-63
2022/03/30 02:12:22;;;;;;;42.38;19.17;;;8.60;99.90;;;;;;5018797;28;20029;-63
2022/03/30 02:14:51;;;;;;;42.17;18.13;;;8.60;99.90;;;;;;5012187;28;20033;-64
2022/03/30 02:17:18;;;;;;;47.47;19.75;;;8.60;99.90;;;;;;5011807;28;20113;-64
2022/03/30 02:19:45;;;;;;;42.95;18.65;;;8.60;99.90;;;;;;5014989;28;20030;-63
2022/03/30 02:22:10;;;;;;;41.95;18.35;;;8.50;99.90;;;;;;5017967;28;20592;-63
2022/03/30 02:24:37;;;;;;;41.88;19.10;;;8.40;99.90;;;;;;5014516;28;20021;-64
2022/03/30 02:27:03;;;;;;;40.15;19.15;;;8.20;99.90;;;;;;5009329;28;20435;-64
2022/03/30 02:29:28;;;;;;;43.20;18.30;;;8.20;99.90;;;;;;5016519;28;20032;-64
2022/03/30 02:31:55;;;;;;;45.33;19.02;;;8.20;99.90;;;;;;5008093;28;20745;-65
2022/03/30 02:34:22;;;;;;;48.00;19.83;;;8.00;99.90;;;;;;5010054;28;20045;-64
2022/03/30 02:36:48;;;;;;;40.65;18.45;;;7.90;99.90;;;;;;5013304;28;20028;-64
2022/03/30 02:39:15;;;;;;;48.40;19.48;;;7.80;99.90;;;;;;5009121;28;20308;-62
2022/03/30 02:41:42;;;;;;;51.03;19.75;;;7.90;99.90;;;;;;5010878;28;20211;-64
2022/03/30 02:44:08;;;;;;;43.63;19.17;;;8.00;99.90;;;;;;5008005;28;20029;-64
2022/03/30 02:46:34;;;;;;;47.45;19.30;;;7.90;99.90;;;;;;5015193;28;20432;-64
2022/03/30 02:49:00;;;;;;;42.17;18.77;;;7.90;99.90;;;;;;5014426;28;20042;-64
2022/03/30 02:51:27;;;;;;;44.85;19.35;;;7.80;99.90;;;;;;5007599;28;20056;-64
2022/03/30 02:53:54;;;;;;;44.22;19.73;;;7.90;99.90;;;;;;5014900;28;20041;-65
2022/03/30 02:56:20;;;;;;;42.53;18.67;;;7.80;99.90;;;;;;5008310;28;20033;-64
2022/03/30 02:58:45;;;;;;;44.95;19.00;;;7.70;99.90;;;;;;5011464;28;20034;-64
2022/03/30 03:01:11;;;;;;;46.70;19.25;;;7.60;99.90;;;;;;5006364;28;20378;-63
2022/03/30 03:03:37;;;;;;;45.60;19.20;;;7.60;99.90;;;;;;5009627;28;20065;-63
2022/03/30 03:06:03;;;;;;;47.47;19.23;;;7.70;99.90;;;;;;5008092;28;20525;-62
2022/03/30 03:08:29;;;;;;;51.28;20.42;;;7.80;99.90;;;;;;5010240;28;20030;-64
2022/03/30 03:10:55;;;;;;;48.85;21.05;;;7.70;99.90;;;;;;5007659;28;20033;-64
2022/03/30 03:13:20;;;;;;;50.97;18.65;;;7.70;99.90;;;;;;5008489;28;20029;-64
2022/03/30 03:15:47;;;;;;;49.22;19.50;;;7.70;99.90;;;;;;5005973;28;20028;-64
2022/03/30 03:18:13;;;;;;;43.03;19.33;;;7.70;99.90;;;;;;5004320;28;20029;-62
2022/03/30 03:20:44;;;;;;;46.83;20.38;;;7.70;99.90;;;;;;5010118;28;20036;-63
2022/03/30 03:23:10;;;;;;;44.78;18.17;;;7.70;99.90;;;;;;5001358;28;20103;-63
2022/03/30 03:25:37;;;;;;;44.05;19.40;;;7.60;99.90;;;;;;5012289;28;20036;-64
2022/03/30 03:28:04;;;;;;;44.15;19.20;;;7.60;99.90;;;;;;5001279;28;20037;-63
2022/03/30 03:30:30;;;;;;;53.20;20.52;;;7.50;99.90;;;;;;5005818;28;20124;-64
2022/03/30 03:32:56;;;;;;;45.83;19.23;;;7.60;99.90;;;;;;5008665;28;20025;-63
2022/03/30 03:35:22;;;;;;;46.30;18.95;;;7.60;99.90;;;;;;5003042;28;20038;-64
2022/03/30 03:37:48;;;;;;;46.90;18.48;;;7.70;99.90;;;;;;5001525;28;20056;-62
2022/03/30 03:40:14;;;;;;;44.53;18.63;;;7.70;99.90;;;;;;5000707;28;20042;-63
2022/03/30 03:42:40;;;;;;;47.22;20.00;;;7.70;99.90;;;;;;5001405;28;20109;-64
2022/03/30 03:45:07;;;;;;;43.65;18.63;;;7.70;99.90;;;;;;5010281;28;20097;-64
2022/03/30 03:47:33;;;;;;;41.28;18.15;;;7.70;99.90;;;;;;5001899;28;20041;-63
2022/03/30 03:49:59;;;;;;;49.17;19.27;;;7.70;99.90;;;;;;5001381;28;20037;-64
2022/03/30 03:52:25;;;;;;;41.42;19.30;;;7.70;99.90;;;;;;5007845;28;20034;-63
2022/03/30 03:54:51;;;;;;;44.22;18.70;;;7.70;99.90;;;;;;5005711;28;20031;-63
2022/03/30 03:57:17;;;;;;;49.50;19.52;;;7.70;99.90;;;;;;5016036;28;20049;-63
2022/03/30 03:59:42;;;;;;;44.42;19.63;;;7.80;99.90;;;;;;5004220;28;20034;-64
2022/03/30 04:02:08;;;;;;;42.90;19.70;;;7.80;99.90;;;;;;5004778;28;20140;-63
2022/03/30 04:04:34;;;;;;;47.42;20.30;;;7.90;99.90;;;;;;5008409;28;20563;-66
2022/03/30 04:07:00;;;;;;;45.72;19.15;;;7.90;99.90;;;;;;5029090;28;20511;-65
2022/03/30 04:09:26;;;;;;;44.20;19.55;;;7.90;99.90;;;;;;5004944;28;20042;-65
2022/03/30 04:11:52;;;;;;;46.08;19.95;;;7.80;99.90;;;;;;5008176;28;20075;-65
2022/03/30 04:14:19;;;;;;;42.95;19.00;;;7.80;99.90;;;;;;5007976;28;20022;-64
2022/03/30 04:16:47;;;;;;;43.35;18.88;;;7.90;99.90;;;;;;5008309;28;20389;-65
2022/03/30 04:19:13;;;;;;;42.10;19.13;;;7.80;99.90;;;;;;4999871;28;20030;-65
2022/03/30 04:21:39;;;;;;;56.78;20.38;;;7.90;99.90;;;;;;5008478;28;20059;-64
2022/03/30 04:24:05;;;;;;;48.35;19.45;;;7.90;99.90;;;;;;5004452;28;20489;-63
2022/03/30 04:26:31;;;;;;;49.38;20.52;;;7.90;99.90;;;;;;5006315;28;20025;-65
2022/03/30 04:28:56;;;;;;;43.85;19.13;;;7.90;99.90;;;;;;5008162;28;20566;-65
2022/03/30 04:31:22;;;;;;;42.33;19.10;;;7.90;99.90;;;;;;5011912;28;20029;-64
2022/03/30 04:33:48;;;;;;;41.10;18.17;;;7.90;99.90;;;;;;5010901;28;20523;-65
2022/03/30 04:36:13;;;;;;;47.40;20.20;;;7.80;99.90;;;;;;5010231;28;20038;-65
2022/03/30 04:38:39;;;;;;;44.65;18.98;;;7.70;99.90;;;;;;5010043;28;20401;-63
2022/03/30 04:41:05;;;;;;;40.08;18.23;;;7.70;99.90;;;;;;5007368;28;20030;-63
2022/03/30 04:43:31;;;;;;;45.38;18.88;;;7.60;99.90;;;;;;5009912;28;20037;-64
2022/03/30 04:45:57;;;;;;;43.67;18.90;;;7.60;99.90;;;;;;5012615;28;20812;-65
2022/03/30 04:48:23;;;;;;;43.58;19.38;;;7.60;99.90;;;;;;5011489;28;20084;-64
2022/03/30 04:50:50;;;;;;;41.85;18.67;;;7.70;99.90;;;;;;5012240;28;20041;-64
2022/03/30 04:53:16;;;;;;;46.15;20.13;;;7.60;99.90;;;;;;5010996;28;20022;-62
2022/03/30 04:55:41;;;;;;;47.03;20.20;;;7.60;99.90;;;;;;5011710;28;20045;-63
2022/03/30 04:58:07;;;;;;;49.00;20.13;;;7.60;99.90;;;;;;5011042;28;20440;-66
2022/03/30 05:00:33;;;;;;;52.17;20.70;;;7.50;99.90;;;;;;5011388;28;20472;-66
2022/03/30 05:02:59;;;;;;;43.75;19.67;;;7.40;99.90;;;;;;5009919;28;20075;-64
2022/03/30 05:05:24;;;;;;;45.08;20.65;;;7.40;99.90;;;;;;5010226;28;20062;-64
2022/03/30 05:07:50;;;;;;;49.03;21.10;;;7.50;99.90;;;;;;5005031;28;20030;-63
2022/03/30 05:10:16;;;;;;;48.33;20.15;;;7.50;99.90;;;;;;5022351;28;20040;-63
2022/03/30 05:12:43;;;;;;;51.05;20.52;;;7.50;99.90;;;;;;5003001;28;20080;-64
2022/03/30 05:15:10;;;;;;;45.80;19.65;;;7.60;99.90;;;;;;5000124;28;20029;-64
2022/03/30 05:17:43;;;;;;;49.95;21.42;;;7.70;99.90;;;;;;5011571;28;20034;-65
2022/03/30 05:20:11;;;;;;;46.88;20.42;;;7.80;99.90;;;;;;5011540;28;20410;-63
2022/03/30 05:22:36;;;;;;;46.05;18.98;;;7.90;99.90;;;;;;5011951;28;20054;-64
2022/03/30 05:25:03;;;;;;;50.58;20.58;;;7.90;99.90;;;;;;5011053;28;20068;-66
2022/03/30 05:27:28;;;;;;;43.83;19.52;;;7.90;99.90;;;;;;5011678;28;20083;-65
2022/03/30 05:29:54;;;;;;;45.47;20.33;;;7.90;99.90;;;;;;5011184;28;20109;-64
2022/03/30 05:32:19;;;;;;;51.35;20.02;;;7.90;99.90;;;;;;5010146;28;20106;-65
2022/03/30 05:34:45;;;;;;;49.83;20.60;;;8.00;99.90;;;;;;5011605;28;20034;-65
2022/03/30 05:37:11;;;;;;;44.53;19.60;;;7.90;99.90;;;;;;5010049;28;20022;-64
2022/03/30 05:39:41;;;;;;;45.85;19.63;;;8.00;99.90;;;;;;5011384;28;20036;-66
2022/03/30 05:42:07;;;;;;;52.67;20.23;;;7.90;99.90;;;;;;5009688;28;20034;-64
2022/03/30 05:44:33;;;;;;;52.05;21.70;;;7.80;99.90;;;;;;5009922;28;20117;-64
2022/03/30 05:46:59;;;;;;;54.80;22.25;;;7.80;99.90;;;;;;5011125;28;20195;-64
2022/03/30 05:49:24;;;;;;;44.35;19.45;;;7.90;99.90;;;;;;5008265;28;20049;-64
2022/03/30 05:51:50;;;;;;;46.28;19.02;;;7.90;99.90;;;;;;5010423;28;20026;-64
2022/03/30 05:54:16;;;;;;;46.60;19.73;;;7.90;99.90;;;;;;5009264;28;20025;-64
2022/03/30 05:57:00;;;;;;;43.70;19.80;;;7.90;99.90;;;;;;5010524;28;20034;-64
2022/03/30 05:59:30;;;;;;;49.08;20.50;;;7.90;99.90;;;;;;5010027;28;20037;-63
2022/03/30 06:01:59;;;;;;;44.00;19.73;;;7.90;99.90;;;;;;5013219;28;20065;-65
2022/03/30 06:04:26;;;;;;;44.58;20.02;;;7.80;99.90;;;;;;5009989;28;20520;-64
2022/03/30 06:06:51;;;;;;;50.75;20.83;;;7.80;99.90;;;;;;5009145;28;20075;-66
2022/03/30 06:09:18;;;;;;;48.30;21.65;;;7.80;99.90;;;;;;5008418;28;20038;-65
2022/03/30 06:11:44;;;;;;;59.75;23.67;;;7.80;99.90;;;;;;5009505;28;20030;-65
2022/03/30 06:14:09;;;;;;;54.75;22.67;;;8.00;99.90;;;;;;5009519;28;20026;-65
2022/03/30 06:16:36;;;;;;;50.05;21.67;;;8.00;99.90;;;;;;5009905;28;20073;-64
2022/03/30 06:19:02;;;;;;;53.85;21.63;;;8.00;99.90;;;;;;5010692;28;20116;-65
2022/03/30 06:21:31;;;;;;;58.15;23.00;;;8.00;99.90;;;;;;5009827;28;20033;-66
2022/03/30 06:24:01;;;;;;;55.75;23.33;;;8.00;99.90;;;;;;5009995;28;20487;-66
2022/03/30 06:26:27;;;;;;;57.57;23.43;;;8.00;99.90;;;;;;5009596;28;20547;-67
2022/03/30 06:28:53;;;;;;;64.57;23.33;;;8.00;99.90;;;;;;5009144;28;20296;-65
2022/03/30 06:31:19;;;;;;;64.28;24.35;;;8.00;99.90;;;;;;5007843;28;20040;-64
2022/03/30 06:33:46;;;;;;;60.25;21.77;;;8.00;99.90;;;;;;5010561;28;20038;-67
2022/03/30 06:36:12;;;;;;;68.43;24.10;;;8.00;99.90;;;;;;5015359;28;20037;-67
2022/03/30 06:38:38;;;;;;;57.78;21.77;;;7.90;99.90;;;;;;5017649;28;20444;-65
2022/03/30 06:41:04;;;;;;;62.00;23.02;;;7.90;99.90;;;;;;5016823;28;20067;-66
2022/03/30 06:43:30;;;;;;;60.00;22.48;;;7.80;99.90;;;;;;5011727;28;20038;-67
2022/03/30 06:45:56;;;;;;;60.90;22.23;;;7.80;99.90;;;;;;5010117;28;20519;-66
2022/03/30 06:48:21;;;;;;;61.05;21.17;;;7.70;99.90;;;;;;5009001;28;20092;-66
2022/03/30 06:50:47;;;;;;;53.00;21.70;;;7.70;99.90;;;;;;5009738;28;20041;-67
2022/03/30 06:53:13;;;;;;;60.40;22.33;;;7.70;99.90;;;;;;5008140;28;20053;-65
2022/03/30 06:55:40;;;;;;;63.55;22.38;;;7.60;99.90;;;;;;5010144;28;20025;-65
2022/03/30 06:58:06;;;;;;;62.25;24.55;;;7.60;99.90;;;;;;5009970;28;20038;-68
2022/03/30 07:00:32;;;;;;;55.67;21.90;;;7.70;99.90;;;;;;5008691;28;20041;-65
2022/03/30 07:02:58;;;;;;;65.60;22.85;;;7.60;99.90;;;;;;5017193;28;20132;-67
2022/03/30 07:05:23;;;;;;;57.85;22.27;;;7.60;99.90;;;;;;5007744;28;20058;-67
2022/03/30 07:10:34;;;;;;;60.28;21.38;;;7.70;99.90;;;;;;5009331;28;20037;-68
2022/03/30 07:13:03;;;;;;;60.30;22.52;;;7.80;99.90;;;;;;5009359;28;20690;-68
2022/03/30 07:15:30;;;;;;;56.83;21.63;;;7.80;99.90;;;;;;5006800;28;20141;-68
2022/03/30 07:17:58;;;;;;;58.70;20.77;;;7.80;99.90;;;;;;5009378;28;20061;-64
2022/03/30 07:20:26;;;;;;;56.42;22.17;;;7.90;99.90;;;;;;5008970;28;20083;-66
2022/03/30 07:22:52;;;;;;;64.65;21.50;;;7.90;99.90;;;;;;5009573;28;20092;-66
2022/03/30 07:25:21;;;;;;;57.10;21.05;;;7.90;99.90;;;;;;5008279;28;20033;-66
2022/03/30 07:27:49;;;;;;;62.90;20.80;;;7.90;99.90;;;;;;5009098;28;20018;-65
2022/03/30 07:30:15;;;;;;;52.30;21.77;;;7.90;99.90;;;;;;5008185;28;20041;-66
2022/03/30 07:32:44;;;;;;;61.80;20.90;;;7.90;99.90;;;;;;5016984;28;20443;-65
2022/03/30 07:35:12;;;;;;;59.13;20.77;;;8.00;99.90;;;;;;5008585;28;20417;-68
2022/03/30 07:37:39;;;;;;;56.28;19.38;;;8.00;99.90;;;;;;5009018;28;20061;-65
2022/03/30 07:40:07;;;;;;;49.05;20.17;;;8.10;99.90;;;;;;5002889;28;20038;-66
2022/03/30 07:42:33;;;;;;;56.88;21.02;;;8.10;99.90;;;;;;5008340;28;20034;-66
2022/03/30 07:44:59;;;;;;;57.05;19.55;;;8.10;99.90;;;;;;5008838;28;20026;-67
2022/03/30 07:47:29;;;;;;;59.08;20.73;;;8.10;99.90;;;;;;5008579;28;20496;-64
2022/03/30 07:49:55;;;;;;;56.45;19.40;;;8.10;99.90;;;;;;5008989;28;20042;-66
2022/03/30 07:52:21;;;;;;;60.50;19.52;;;8.10;99.90;;;;;;5008395;28;20036;-65
2022/03/30 07:54:48;;;;;;;48.05;20.52;;;8.10;99.90;;;;;;5007605;28;20539;-69
2022/03/30 07:57:15;;;;;;;57.83;20.67;;;8.10;99.90;;;;;;5008446;28;20069;-66
2022/03/30 07:59:41;;;;;;;57.33;19.63;;;8.10;99.90;;;;;;5008608;28;20141;-68
2022/03/30 08:02:07;;;;;;;58.17;20.02;;;8.10;99.90;;;;;;5009106;28;20112;-65
2022/03/30 08:04:33;;;;;;;56.20;19.25;;;8.10;99.90;;;;;;5007640;28;20054;-66
2022/03/30 08:06:59;;;;;;;53.70;19.33;;;8.10;99.90;;;;;;5008770;28;20025;-68
2022/03/30 08:09:25;;;;;;;51.30;19.88;;;8.10;99.90;;;;;;5006846;28;20120;-67
2022/03/30 08:11:52;;;;;;;51.78;18.35;;;8.10;99.90;;;;;;5008736;28;20025;-66
2022/03/30 08:14:18;;;;;;;53.70;19.48;;;8.10;99.90;;;;;;5008389;28;20029;-67
2022/03/30 08:16:44;;;;;;;49.35;19.08;;;8.10;99.90;;;;;;5008650;28;20025;-67
2022/03/30 08:19:10;;;;;;;67.45;19.85;;;8.10;99.90;;;;;;5008275;28;20069;-67
2022/03/30 08:24:21;;;;;;;56.55;18.60;;;8.20;99.90;;;;;;5000198;28;20029;-67
2022/03/30 08:26:47;;;;;;;59.78;19.15;;;8.20;99.90;;;;;;5014159;28;20030;-68
2022/03/30 08:29:13;;;;;;;53.30;18.73;;;8.20;99.90;;;;;;5007344;28;20385;-69
2022/03/30 08:31:38;;;;;;;60.20;19.63;;;8.20;99.90;;;;;;5008124;28;20493;-66
2022/03/30 08:34:04;;;;;;;50.03;18.33;;;8.20;99.90;;;;;;5007638;28;20033;-65
2022/03/30 08:36:30;;;;;;;50.17;17.52;;;8.20;99.90;;;;;;5006762;28;20127;-64
2022/03/30 08:38:57;;;;;;;55.15;17.95;;;8.20;99.90;;;;;;5007400;28;20069;-67
2022/03/30 08:41:23;;;;;;;48.22;16.75;;;8.30;99.90;;;;;;5007528;28;20033;-67
2022/03/30 08:43:49;;;;;;;48.25;16.73;;;8.30;99.90;;;;;;5008628;28;20026;-67
2022/03/30 08:46:15;;;;;;;44.63;16.40;;;8.30;99.90;;;;;;5007435;28;20034;-67
2022/03/30 08:48:42;;;;;;;53.70;17.40;;;8.30;99.90;;;;;;5007564;28;20034;-66
2022/03/30 08:51:08;;;;;;;49.97;17.15;;;8.30;99.90;;;;;;5008545;28;20029;-66
2022/03/30 08:53:34;;;;;;;49.08;15.82;;;8.30;99.90;;;;;;4999632;28;20029;-67
2022/03/30 08:56:00;;;;;;;52.20;16.50;;;8.30;99.90;;;;;;5007152;28;20152;-67
2022/03/30 08:58:27;;;;;;;40.88;17.52;;;8.40;99.90;;;;;;5006419;28;20036;-65
2022/03/30 09:01:05;;;;;;;55.10;18.27;;;8.40;99.90;;;;;;5007510;28;20034;-66
2022/03/30 09:03:31;;;;;;;48.10;16.52;;;8.50;99.90;;;;;;5004509;28;20404;-66
2022/03/30 09:05:58;;;;;;;48.30;17.13;;;8.50;99.90;;;;;;5007989;28;20041;-67
2022/03/30 09:08:27;;;;;;;45.85;17.35;;;8.50;99.90;;;;;;5006621;28;20029;-66
2022/03/30 09:10:54;;;;;;;53.95;18.55;;;8.50;99.90;;;;;;5004163;28;20495;-65
2022/03/30 09:13:21;;;;;;;44.83;16.77;;;8.50;99.90;;;;;;5001730;28;20089;-65
2022/03/30 09:15:50;;;;;;;50.13;17.10;;;8.50;99.90;;;;;;5006601;28;20088;-65
2022/03/30 09:18:17;;;;;;;46.03;15.98;;;8.50;99.90;;;;;;5006939;28;20029;-65
2022/03/30 09:20:48;;;;;;;50.47;18.02;;;8.60;99.90;;;;;;5006610;28;20037;-64
2022/03/30 09:23:15;;;;;;;47.03;17.70;;;8.70;99.90;;;;;;4998028;28;20030;-65
2022/03/30 09:25:46;;;;;;;45.53;17.35;;;8.70;99.90;;;;;;5007586;28;20022;-67
2022/03/30 09:28:12;;;;;;;;;;;8.80;99.90;;;;;;5014283;28;20079;-66
2022/03/30 09:30:38;;;;;;;57.83;18.02;;;8.70;99.90;;;;;;5010822;28;19979;-65
2022/03/30 09:33:10;;;;;;;44.38;17.48;;;8.70;99.90;;;;;;5016724;28;20021;-65
2022/03/30 09:35:39;;;;;;;42.53;15.60;;;8.80;99.90;;;;;;5009014;28;20111;-65
2022/03/30 09:38:11;;;;;;;48.22;17.15;;;8.80;99.90;;;;;;5008311;28;20026;-64
2022/03/30 09:40:40;;;;;;;56.78;16.42;;;8.90;99.90;;;;;;5010915;28;20030;-68
2022/03/30 09:43:25;;;;;;;51.33;17.75;;;9.00;99.90;;;;;;5009863;28;20427;-66
2022/03/30 09:46:12;;;;;;;46.00;17.95;;;8.90;99.90;;;;;;5008755;28;20033;-65
2022/03/30 09:48:49;;;;;;;48.05;16.60;;;9.00;99.90;;;;;;5008864;28;20021;-64
2022/03/30 09:51:26;;;;;;;51.17;16.67;;;9.00;99.90;;;;;;5005342;28;20121;-65
2022/03/30 09:53:52;;;;;;;53.03;17.38;;;9.00;99.90;;;;;;5010638;28;20041;-65
2022/03/30 09:56:23;;;;;;;48.15;17.05;;;9.00;99.90;;;;;;5010327;28;20022;-65
2022/03/30 09:58:58;;;;;;;53.13;17.10;;;9.00;99.90;;;;;;5009250;28;20079;-64
2022/03/30 10:01:29;;;;;;;49.15;16.48;;;9.00;99.90;;;;;;5011000;28;20376;-66
2022/03/30 10:04:00;;;;;;;59.80;16.65;;;9.10;99.90;;;;;;5018373;28;20062;-64
2022/03/30 10:06:28;;;;;;;54.67;17.55;;;9.10;99.90;;;;;;5010026;28;20038;-64
2022/03/30 10:08:55;;;;;;;47.47;16.20;;;9.10;99.90;;;;;;5010598;28;20026;-65
2022/03/30 10:11:23;;;;;;;42.63;14.98;;;9.30;99.90;;;;;;5010187;28;20052;-64
2022/03/30 10:14:00;;;;;;;48.75;15.68;;;9.40;99.90;;;;;;5009120;28;20022;-64
2022/03/30 10:16:27;;;;;;;48.22;15.20;;;9.50;99.90;;;;;;5016771;28;20033;-64
2022/03/30 10:18:54;;;;;;;48.30;16.30;;;9.60;99.90;;;;;;5013170;28;20384;-66
2022/03/30 10:21:25;;;;;;;49.33;16.33;;;9.60;99.90;;;;;;5006428;28;20384;-64
2022/03/30 10:24:23;;;;;;;51.78;16.40;;;9.70;99.90;;;;;;5025964;28;20075;-64
2022/03/30 10:27:01;;;;;;;53.97;15.95;;;9.90;99.90;;;;;;5011142;28;20120;-64
2022/03/30 10:29:29;;;;;;;49.58;15.30;;;9.90;99.90;;;;;;5001084;28;20060;-65
2022/03/30 10:32:16;;;;;;;40.70;14.73;;;10.00;99.90;;;;;;5001183;28;20531;-66
2022/03/30 10:34:50;;;;;;;40.78;15.48;;;10.00;99.90;;;;;;5005323;28;20116;-66
2022/03/30 10:37:37;;;;;;;51.65;14.60;;;9.80;99.90;;;;;;5003622;28;20358;-65
2022/03/30 10:40:03;;;;;;;45.35;15.05;;;9.90;99.90;;;;;;5016396;28;20030;-66
2022/03/30 10:43:05;;;;;;;36.22;13.68;;;9.80;99.90;;;;;;5009673;28;20483;-64
2022/03/30 10:45:43;;;;;;;53.40;14.63;;;9.80;99.90;;;;;;4951316;28;20039;-67
2022/03/30 10:48:17;;;;;;;45.42;15.05;;;9.70;99.90;;;;;;5018425;28;20030;-67
2022/03/30 10:50:52;;;;;;;45.95;14.30;;;9.60;99.90;;;;;;5001229;28;20053;-66
2022/03/30 10:53:33;;;;;;;36.03;13.00;;;9.60;99.90;;;;;;5004615;28;20031;-65
2022/03/30 10:56:12;;;;;;;44.85;14.23;;;9.60;99.90;;;;;;5009126;28;20029;-65
2022/03/30 10:59:01;;;;;;;48.40;15.00;;;9.60;99.90;;;;;;5006159;28;20600;-67
2022/03/30 11:01:35;;;;;;;44.25;13.52;;;9.50;99.90;;;;;;5007697;28;20040;-66
2022/03/30 11:04:03;;;;;;;48.45;14.75;;;9.50;99.90;;;;;;5003732;28;20061;-66
2022/03/30 11:06:38;;;;;;;39.30;13.35;;;9.60;99.90;;;;;;5011686;28;20599;-66
2022/03/30 11:09:08;;;;;;;45.05;12.80;;;9.60;99.90;;;;;;5009793;28;20116;-65
2022/03/30 11:11:42;;;;;;;42.15;14.00;;;9.60;99.90;;;;;;4998702;28;20432;-65
2022/03/30 11:14:34;;;;;;;54.83;13.65;;;9.50;99.90;;;;;;5009244;28;20041;-64
2022/03/30 11:17:09;;;;;;;40.60;13.10;;;9.40;99.90;;;;;;5011421;28;20041;-64
2022/03/30 11:19:47;;;;;;;45.00;13.90;;;9.40;99.90;;;;;;5002622;28;20084;-64
2022/03/30 11:22:14;;;;;;;38.03;14.52;;;9.40;99.90;;;;;;5010720;28;20026;-64
2022/03/30 11:24:42;;;;;;;43.35;12.77;;;9.40;99.90;;;;;;5007803;28;20030;-64
2022/03/30 11:27:08;;;;;;;46.78;12.82;;;9.50;99.90;;;;;;5009138;28;20041;-64
2022/03/30 11:29:44;;;;;;;42.20;12.88;;;9.60;99.90;;;;;;5008366;28;20041;-65
2022/03/30 11:32:19;;;;;;;43.28;14.18;;;9.60;99.90;;;;;;5011357;28;20029;-64
2022/03/30 11:34:48;;;;;;;43.55;13.85;;;9.50;99.90;;;;;;5009826;28;20249;-64
2022/03/30 11:37:13;;;;;;;62.05;16.58;;;9.50;99.90;;;;;;5009208;28;20026;-64
2022/03/30 11:39:41;;;;;;;45.50;13.45;;;9.50;99.90;;;;;;5007933;28;20038;-65
2022/03/30 11:42:07;;;;;;;45.05;13.35;;;9.60;99.90;;;;;;5006433;28;20128;-65
2022/03/30 11:47:24;;;;;;;33.92;12.65;;;9.50;99.90;;;;;;5012347;28;20591;-64
2022/03/30 11:49:55;;;;;;;32.20;12.65;;;9.50;99.90;;;;;;5007691;28;20503;-64
2022/03/30 11:52:24;;;;;;;37.40;12.98;;;9.40;99.90;;;;;;5013769;28;20485;-64
2022/03/30 11:54:52;;;;;;;49.67;14.52;;;9.40;99.90;;;;;;5005505;28;20049;-64
2022/03/30 11:57:19;;;;;;;40.13;13.02;;;9.50;99.90;;;;;;5006518;28;20036;-63
2022/03/30 12:00:03;;;;;;;45.17;14.20;;;9.30;99.90;;;;;;5003619;28;20594;-64
2022/03/30 12:02:29;;;;;;;42.33;13.10;;;9.30;99.90;;;;;;5010508;28;20433;-64
2022/03/30 12:04:56;;;;;;;48.35;14.45;;;9.30;99.90;;;;;;5007783;28;20134;-63
2022/03/30 12:07:42;;;;;;;42.67;13.85;;;9.20;99.90;;;;;;5006005;28;20059;-63
2022/03/30 12:10:16;;;;;;;40.92;13.60;;;9.30;99.90;;;;;;5008040;28;20061;-65
2022/03/30 12:12:43;;;;;;;37.85;13.68;;;9.30;99.90;;;;;;5007933;28;20030;-65
2022/03/30 12:15:18;;;;;;;37.72;13.00;;;9.30;99.90;;;;;;5008928;28;20045;-64
2022/03/30 12:17:54;;;;;;;38.60;11.75;;;9.30;99.90;;;;;;5006599;28;20030;-63
2022/03/30 12:20:32;;;;;;;35.80;11.15;;;9.30;99.90;;;;;;5008351;28;20762;-64
2022/03/30 12:23:06;;;;;;;34.10;11.25;;;9.30;99.90;;;;;;5008384;28;20033;-65
2022/03/30 12:25:35;;;;;;;32.90;11.30;;;9.30;99.90;;;;;;5007929;28;20087;-65
2022/03/30 12:28:02;;;;;;;37.63;11.80;;;9.30;99.90;;;;;;5008158;28;20025;-65
2022/03/30 12:30:31;;;;;;;28.15;11.13;;;9.30;99.90;;;;;;5007575;28;20038;-67
2022/03/30 12:32:57;;;;;;;29.17;10.68;;;9.30;99.90;;;;;;5009493;28;20069;-65
2022/03/30 12:35:28;;;;;;;33.20;11.25;;;9.40;99.90;;;;;;5008482;28;20034;-64
2022/03/30 12:38:08;;;;;;;35.97;11.25;;;9.50;99.90;;;;;;5008473;28;20045;-64
2022/03/30 12:40:36;;;;;;;30.70;10.43;;;9.60;99.90;;;;;;5000707;28;20029;-65
2022/03/30 12:43:03;;;;;;;27.27;10.20;;;9.60;99.90;;;;;;5008481;28;20293;-64
2022/03/30 12:45:29;;;;;;;26.90;10.07;;;9.70;99.90;;;;;;5007709;28;20125;-64
2022/03/30 12:47:58;;;;;;;25.27;9.82;;;9.70;99.90;;;;;;5008544;28;20101;-65
2022/03/30 12:50:33;;;;;;;30.52;10.60;;;9.80;99.90;;;;;;5007562;28;20448;-64
2022/03/30 12:53:17;;;;;;;28.25;9.98;;;9.90;99.90;;;;;;5008452;28;20034;-63